createdAt,value
2022-12-03T00:00:23.064Z,3.30
2022-12-03T00:02:51.794Z,3.30
2022-12-03T00:05:20.513Z,3.30
2022-12-03T00:07:49.140Z,3.30
2022-12-03T00:10:17.675Z,3.30
2022-12-03T00:12:47.711Z,3.30
2022-12-03T00:15:16.367Z,3.40
2022-12-03T00:17:44.780Z,3.40
2022-12-03T00:20:19.828Z,3.40
2022-12-03T00:22:48.378Z,3.40
2022-12-03T00:25:17.427Z,3.40
2022-12-03T00:27:47.583Z,3.40
2022-12-03T00:30:31.327Z,3.50
2022-12-03T00:33:00.201Z,3.50
2022-12-03T00:35:32.793Z,3.50
2022-12-03T00:38:01.325Z,3.50
2022-12-03T00:40:30.921Z,3.60
2022-12-03T00:43:03.326Z,3.60
2022-12-03T00:45:31.973Z,3.60
2022-12-03T00:48:00.964Z,3.60
2022-12-03T00:50:29.812Z,3.60
2022-12-03T00:52:58.444Z,3.60
2022-12-03T00:55:26.881Z,3.60
2022-12-03T00:57:55.605Z,3.70
2022-12-03T01:00:25.682Z,3.70
2022-12-03T01:02:54.655Z,3.70
2022-12-03T01:05:24.324Z,3.70
2022-12-03T01:07:52.858Z,3.70
2022-12-03T01:10:22.381Z,3.70
2022-12-03T01:12:50.808Z,3.70
2022-12-03T01:15:19.571Z,3.70
2022-12-03T01:17:49.708Z,3.70
2022-12-03T01:20:18.329Z,3.70
2022-12-03T01:22:46.861Z,3.70
2022-12-03T01:25:15.783Z,3.70
2022-12-03T01:27:44.483Z,3.70
2022-12-03T01:30:15.027Z,3.70
2022-12-03T01:32:42.645Z,3.70
2022-12-03T01:35:12.702Z,3.70
2022-12-03T01:37:41.293Z,3.60
2022-12-03T01:40:13.491Z,3.60
2022-12-03T01:42:43.973Z,3.60
2022-12-03T01:45:21.973Z,3.60
2022-12-03T01:47:50.599Z,3.60
2022-12-03T01:50:24.539Z,3.60
2022-12-03T01:52:56.820Z,3.60
2022-12-03T01:55:27.449Z,3.60
2022-12-03T01:57:58.380Z,3.60
2022-12-03T02:00:28.334Z,3.60
2022-12-03T02:02:58.271Z,3.60
2022-12-03T02:05:29.954Z,3.60
2022-12-03T02:07:59.564Z,3.60
2022-12-03T02:10:32.095Z,3.60
2022-12-03T02:13:04.136Z,3.60
2022-12-03T02:15:32.576Z,3.60
2022-12-03T02:18:01.747Z,3.70
2022-12-03T02:20:34.284Z,3.70
2022-12-03T02:23:10.373Z,3.70
2022-12-03T02:25:40.426Z,3.70
2022-12-03T02:28:10.431Z,3.60
2022-12-03T02:30:39.181Z,3.60
2022-12-03T02:33:07.761Z,3.60
2022-12-03T02:35:38.400Z,3.70
2022-12-03T02:38:13.654Z,3.70
2022-12-03T02:40:44.857Z,3.70
2022-12-03T02:43:14.820Z,3.70
2022-12-03T02:45:45.338Z,3.70
2022-12-03T02:48:17.734Z,3.70
2022-12-03T02:50:51.626Z,3.70
2022-12-03T02:53:24.555Z,3.70
2022-12-03T02:55:55.804Z,3.70
2022-12-03T02:58:25.767Z,3.70
2022-12-03T03:00:56.336Z,3.70
2022-12-03T03:03:27.203Z,3.70
2022-12-03T03:05:57.666Z,3.70
2022-12-03T03:08:28.118Z,3.80
2022-12-03T03:11:00.508Z,3.80
2022-12-03T03:13:30.964Z,3.80
2022-12-03T03:15:59.812Z,3.80
2022-12-03T03:18:28.189Z,3.80
2022-12-03T03:20:56.856Z,3.80
2022-12-03T03:23:26.251Z,3.70
2022-12-03T03:26:03.211Z,3.80
2022-12-03T03:28:41.833Z,3.80
2022-12-03T03:31:13.214Z,3.80
2022-12-03T03:33:54.336Z,3.80
2022-12-03T03:36:24.201Z,3.70
2022-12-03T03:38:52.846Z,3.70
2022-12-03T03:41:23.100Z,3.70
2022-12-03T03:43:51.860Z,3.70
2022-12-03T03:46:21.556Z,3.70
2022-12-03T03:48:51.488Z,3.70
2022-12-03T03:51:20.896Z,3.70
2022-12-03T03:53:51.099Z,3.70
2022-12-03T03:56:22.556Z,3.70
2022-12-03T03:58:50.928Z,3.70
2022-12-03T04:01:19.869Z,3.70
2022-12-03T04:03:48.320Z,3.70
2022-12-03T04:06:17.259Z,3.70
2022-12-03T04:08:45.950Z,3.70
2022-12-03T04:11:31.588Z,3.70
2022-12-03T04:14:01.509Z,3.70
2022-12-03T04:16:30.214Z,3.70
2022-12-03T04:18:58.675Z,3.70
2022-12-03T04:21:44.204Z,3.80
2022-12-03T04:24:16.021Z,3.70
2022-12-03T04:27:02.236Z,3.70
2022-12-03T04:29:32.247Z,3.70
2022-12-03T04:32:18.027Z,3.70
2022-12-03T04:35:03.828Z,3.70
2022-12-03T04:37:32.332Z,3.70
2022-12-03T04:40:00.817Z,3.80
2022-12-03T04:42:29.300Z,3.80
2022-12-03T04:44:59.746Z,3.70
2022-12-03T04:47:28.259Z,3.70
2022-12-03T04:49:56.633Z,3.80
2022-12-03T04:52:25.057Z,3.80
2022-12-03T04:54:53.705Z,3.70
2022-12-03T04:57:22.220Z,3.80
2022-12-03T04:59:50.624Z,3.80
2022-12-03T05:02:20.456Z,3.80
2022-12-03T05:04:48.876Z,3.70
2022-12-03T05:07:32.232Z,3.70
2022-12-03T05:10:00.748Z,3.70
2022-12-03T05:12:29.188Z,3.70
2022-12-03T05:14:57.842Z,3.80
2022-12-03T05:17:27.687Z,3.70
2022-12-03T05:20:13.807Z,3.80
2022-12-03T05:22:42.778Z,3.80
2022-12-03T05:25:12.155Z,3.70
2022-12-03T05:27:41.291Z,3.80
2022-12-03T05:30:10.937Z,3.80
2022-12-03T05:32:43.786Z,3.80
2022-12-03T05:35:32.402Z,3.80
2022-12-03T05:38:00.756Z,3.80
2022-12-03T05:40:29.076Z,3.80
2022-12-03T05:42:57.164Z,3.80
2022-12-03T05:45:27.419Z,3.80
2022-12-03T05:47:58.695Z,3.80
2022-12-03T05:50:29.303Z,3.80
2022-12-03T05:52:58.186Z,3.80
2022-12-03T05:55:27.440Z,3.80
2022-12-03T05:57:56.230Z,3.80
2022-12-03T06:00:26.202Z,3.80
2022-12-03T06:02:56.663Z,3.80
2022-12-03T06:05:25.884Z,3.80
2022-12-03T06:07:54.931Z,3.80
2022-12-03T06:10:24.941Z,3.80
2022-12-03T06:12:54.066Z,3.80
2022-12-03T06:15:22.585Z,3.90
2022-12-03T06:17:51.013Z,3.80
2022-12-03T06:20:22.051Z,3.80
2022-12-03T06:22:50.490Z,3.80
2022-12-03T06:25:19.166Z,3.80
2022-12-03T06:28:02.835Z,3.80
2022-12-03T06:30:31.427Z,3.80
2022-12-03T06:32:59.964Z,3.80
2022-12-03T06:35:29.856Z,3.90
2022-12-03T06:37:58.192Z,3.90
2022-12-03T06:40:26.498Z,3.90
2022-12-03T06:42:55.055Z,3.90
2022-12-03T22:32:47.587Z,4.10
2022-12-03T22:35:16.566Z,4.10
2022-12-03T22:37:45.461Z,4.10
2022-12-03T22:40:14.649Z,4.10
2022-12-03T22:42:49.352Z,4.10
2022-12-03T22:45:19.430Z,4.10
2022-12-03T22:47:49.419Z,4.10
2022-12-03T22:50:18.122Z,4.10
2022-12-03T22:52:46.729Z,4.10
2022-12-03T22:55:15.379Z,4.10
2022-12-03T22:57:43.997Z,4.10
2022-12-03T23:00:34.733Z,4.10
2022-12-03T23:03:03.875Z,4.10
2022-12-03T23:05:34.408Z,4.10
2022-12-03T23:08:02.851Z,4.10
2022-12-03T23:10:34.189Z,4.10
2022-12-03T23:13:02.930Z,4.10
2022-12-03T23:15:34.894Z,4.10
2022-12-03T23:18:03.368Z,4.10
2022-12-03T23:20:31.706Z,4.10
2022-12-03T23:23:00.101Z,4.00
2022-12-03T23:25:28.495Z,4.10
2022-12-03T23:27:57.042Z,4.00
2022-12-03T23:30:25.862Z,4.00
2022-12-03T23:33:02.101Z,4.00
2022-12-03T23:35:31.130Z,4.00
2022-12-03T23:37:59.752Z,4.00
2022-12-03T23:40:28.334Z,4.00
2022-12-03T23:42:56.842Z,4.00
2022-12-03T23:45:25.451Z,3.90
2022-12-03T23:47:58.340Z,3.90
2022-12-03T23:50:47.293Z,3.80
2022-12-03T23:53:36.883Z,3.80
2022-12-03T23:56:07.001Z,3.80
2022-12-03T23:58:36.151Z,3.80
